Time;durP1;ratioP1;P1;durP2;ratioP2;P2;SDS_P1;SDS_P2;PMS_P1;PMS_P2;Temp;Humidity;BMP_temperature;BMP_pressure;BME280_temperature;BME280_humidity;BME280_pressure;Samples;Min_cycle;Max_cycle;Signal;HPM_P1;HPM_P2
2022/05/28 00:01:22;;;;;;;1.65;1.25;;;18.20;50.10;;;14.54;61.91;95935.22;5068036;28;19922;-57
2022/05/28 00:03:48;;;;;;;2.90;1.13;;;18.20;50.20;;;14.51;61.27;95930.44;5050748;28;20474;-57
2022/05/28 00:06:20;;;;;;;1.80;1.30;;;18.20;50.10;;;14.49;61.10;95935.22;5068459;28;20056;-56
2022/05/28 00:08:47;;;;;;;1.65;1.08;;;18.20;50.20;;;14.49;60.75;95931.75;5071640;28;20466;-53
2022/05/28 00:11:23;;;;;;;2.08;1.20;;;18.10;50.10;;;14.48;60.52;95927.47;5050485;28;20533;-55
2022/05/28 00:13:50;;;;;;;1.40;1.25;;;18.20;50.20;;;14.41;60.55;95919.75;5034157;28;20095;-53
2022/05/28 00:16:19;;;;;;;1.20;1.10;;;18.10;50.10;;;14.44;60.90;95921.84;5050600;28;20388;-53
2022/05/28 00:18:54;;;;;;;4.03;1.38;;;18.10;50.20;;;14.44;60.54;95923.75;5067074;28;20025;-50
2022/05/28 00:21:23;;;;;;;2.50;1.10;;;18.10;50.20;;;14.42;60.16;95915.19;5059059;28;20074;-52
2022/05/28 00:23:49;;;;;;;1.00;0.90;;;18.10;50.00;;;14.30;60.04;95905.63;5053130;28;20047;-52
2022/05/28 00:26:18;;;;;;;2.20;1.05;;;18.10;50.00;;;14.33;60.68;95909.63;5075298;28;20039;-52
2022/05/28 00:28:46;;;;;;;1.13;0.95;;;18.00;50.00;;;14.30;60.28;95916.34;5075068;28;20032;-57
2022/05/28 00:31:15;;;;;;;2.65;1.10;;;18.00;50.00;;;14.31;60.12;95909.09;5053938;28;20479;-55
2022/05/28 00:33:45;;;;;;;2.53;1.00;;;18.00;49.90;;;14.26;60.70;95901.91;5053730;28;20033;-57
2022/05/28 00:36:17;;;;;;;1.63;1.20;;;18.00;50.00;;;14.25;60.69;95899.50;5064178;28;20028;-57
2022/05/28 00:38:44;;;;;;;1.30;0.90;;;17.90;50.00;;;14.25;60.50;95905.66;5057158;28;20074;-56
2022/05/28 00:41:19;;;;;;;1.70;1.20;;;17.90;50.00;;;14.26;61.07;95903.81;5040700;28;20509;-57
2022/05/28 00:43:45;;;;;;;1.25;1.13;;;17.90;50.20;;;14.20;61.30;95894.22;5056872;28;20029;-57
2022/05/28 00:46:18;;;;;;;2.40;0.98;;;17.90;50.10;;;14.19;60.73;95889.91;5020413;28;20036;-51
2022/05/28 00:48:55;;;;;;;2.17;1.20;;;17.90;50.10;;;14.16;61.06;95880.53;5027781;28;20467;-53
2022/05/28 00:51:29;;;;;;;1.98;1.20;;;17.80;50.10;;;14.16;61.09;95887.78;5071415;28;20398;-53
2022/05/28 00:54:04;;;;;;;1.83;1.30;;;17.80;50.10;;;14.15;61.19;95878.97;5053612;28;20025;-51
2022/05/28 00:56:30;;;;;;;1.42;1.05;;;17.80;50.10;;;14.11;61.46;95883.28;5037126;28;20037;-52
2022/05/28 00:58:58;;;;;;;2.15;1.10;;;17.80;50.10;;;14.12;61.02;95884.88;5054649;28;20032;-55
2022/05/28 01:01:31;;;;;;;3.33;1.15;;;17.70;50.10;;;14.05;61.12;95866.44;5053323;28;20518;-53
2022/05/28 01:04:15;;;;;;;;;;;17.70;50.20;;;14.10;61.19;95879.81;5037548;28;20487;-55
2022/05/28 01:07:13;;;;;;;2.80;1.20;;;17.70;49.90;;;14.05;60.99;95877.16;5044828;28;20290;-55
2022/05/28 01:10:16;;;;;;;2.08;1.15;;;17.70;49.90;;;14.02;61.23;95880.38;5074350;28;20024;-54
2022/05/28 01:13:05;;;;;;;1.70;1.10;;;17.70;50.10;;;14.02;61.41;95876.91;5074413;28;20429;-57
2022/05/28 01:16:01;;;;;;;2.97;1.10;;;17.70;50.10;;;14.02;61.12;95871.56;5039734;28;20105;-56
2022/05/28 01:18:59;;;;;;;3.28;1.35;;;17.70;50.10;;;14.02;61.58;95869.69;5053263;28;20032;-57
2022/05/28 01:21:47;;;;;;;3.47;1.20;;;17.70;50.20;;;14.00;62.01;95874.50;5037509;28;20021;-52
2022/05/28 01:24:40;;;;;;;1.40;1.10;;;17.70;50.30;;;14.01;61.48;95869.97;5036938;28;20048;-54
2022/05/28 01:27:16;;;;;;;3.17;1.25;;;17.70;50.30;;;13.97;61.88;95867.03;5056342;28;20028;-52
2022/05/28 01:29:51;;;;;;;2.05;1.20;;;17.60;50.40;;;13.94;62.84;95864.91;5056333;28;20479;-53
2022/05/28 01:32:19;;;;;;;1.70;1.08;;;17.60;50.40;;;13.95;62.39;95863.84;5036524;28;20120;-55
2022/05/28 01:34:46;;;;;;;1.90;1.15;;;17.60;50.40;;;13.94;62.54;95854.19;5068689;28;20025;-55
2022/05/28 01:37:13;;;;;;;1.48;1.02;;;17.60;50.50;;;13.84;63.22;95849.72;5050403;28;20499;-56
2022/05/28 01:39:43;;;;;;;2.95;1.38;;;17.60;50.60;;;13.87;62.77;95856.38;5053783;28;20126;-56
2022/05/28 01:42:16;;;;;;;1.73;1.20;;;17.60;50.70;;;13.84;62.43;95851.59;5052483;28;20072;-56
2022/05/28 01:44:46;;;;;;;;;;;17.50;50.70;;;13.85;62.66;95847.81;5069462;28;20083;-55
2022/05/28 01:47:14;;;;;;;3.47;1.30;;;17.50;50.50;;;13.72;63.26;95817.13;5053751;28;20015;-53
2022/05/28 01:49:41;;;;;;;3.03;1.10;;;17.50;50.60;;;13.84;62.84;95843.56;5052412;28;20116;-54
2022/05/28 01:52:15;;;;;;;2.70;1.13;;;17.50;50.70;;;13.82;62.80;95846.53;5052989;28;20052;-53
2022/05/28 01:54:45;;;;;;;1.67;1.10;;;17.50;50.90;;;13.81;62.77;95842.22;5052334;28;20021;-54
2022/05/28 01:57:17;;;;;;;2.15;1.30;;;17.50;50.90;;;13.82;63.31;95840.34;5052415;28;20029;-52
2022/05/28 01:59:46;;;;;;;3.42;1.58;;;17.50;51.10;;;13.81;62.94;95836.88;5052060;28;20033;-54
2022/05/28 02:02:15;;;;;;;1.33;1.08;;;17.50;51.10;;;13.85;62.86;95850.50;5052284;28;20037;-55
2022/05/28 02:04:45;;;;;;;2.88;1.33;;;17.50;51.10;;;13.82;63.14;95835.81;5052127;28;20033;-56
2022/05/28 02:07:16;;;;;;;2.42;1.23;;;17.50;51.10;;;13.82;63.02;95848.38;5052583;28;20476;-56
2022/05/28 02:09:58;;;;;;;3.28;1.10;;;17.50;51.20;;;13.83;63.30;95840.09;5053237;28;20037;-53
2022/05/28 02:13:23;;;;;;;1.77;1.08;;;17.50;51.40;;;13.83;63.56;95828.59;5036021;28;20048;-55
2022/05/28 02:15:57;;;;;;;1.92;1.40;;;17.50;51.40;;;13.77;63.36;95833.16;5051922;28;20035;-55
2022/05/28 02:18:43;;;;;;;2.17;1.50;;;17.50;51.30;;;13.80;63.79;95821.09;5051995;28;20074;-57
2022/05/28 02:21:42;;;;;;;2.15;1.48;;;17.50;51.40;;;13.79;63.81;95819.53;5051939;28;20028;-57
2022/05/28 02:24:41;;;;;;;1.75;1.30;;;17.50;51.50;;;13.76;64.58;95815.50;5052879;28;20095;-56
2022/05/28 02:27:14;;;;;;;2.13;1.25;;;17.40;51.60;;;13.72;64.57;95801.06;5038725;28;20036;-56
2022/05/28 02:29:40;;;;;;;;;;;17.40;51.70;;;13.72;64.44;95801.06;5055965;28;20036;-57
2022/05/28 02:32:23;;;;;;;1.48;1.20;;;17.40;51.40;;;13.75;64.69;95818.47;5051821;28;19909;-57
2022/05/28 02:34:50;;;;;;;2.78;1.40;;;17.40;51.60;;;13.72;65.48;95814.44;5053036;28;20040;-55
2022/05/28 02:37:23;;;;;;;2.15;1.20;;;17.40;51.70;;;13.65;65.19;95811.28;5051584;28;20055;-57
2022/05/28 02:39:49;;;;;;;2.85;1.30;;;17.40;52.00;;;13.62;65.23;95809.97;5035358;28;20036;-55
2022/05/28 02:42:18;;;;;;;1.20;1.10;;;17.30;52.00;;;13.62;65.94;95811.84;5051587;28;20086;-55
2022/05/28 02:44:47;;;;;;;2.75;1.40;;;17.30;52.20;;;13.59;65.95;95810.53;5051255;28;20025;-57
2022/05/28 02:47:15;;;;;;;1.55;1.00;;;17.30;52.30;;;13.57;67.28;95817.22;5051841;28;20021;-57
2022/05/28 02:49:42;;;;;;;1.65;1.10;;;17.30;52.60;;;13.55;66.70;95804.13;5052406;28;20025;-57
2022/05/28 02:52:08;;;;;;;1.73;1.40;;;17.30;52.60;;;13.51;66.34;95802.31;5090193;22;20461;-56
2022/05/28 02:54:35;;;;;;;2.10;1.10;;;17.20;52.70;;;13.50;66.72;95803.38;5070539;28;20035;-55
2022/05/28 02:57:16;;;;;;;1.92;1.33;;;17.20;52.80;;;13.49;67.18;95802.56;5055446;28;20078;-53
2022/05/28 02:59:51;;;;;;;1.63;1.30;;;17.20;53.20;;;13.45;67.65;95803.41;5055329;28;20024;-56
2022/05/28 03:02:17;;;;;;;1.48;1.08;;;17.20;53.30;;;13.39;67.50;95798.06;5071841;28;20159;-55
2022/05/28 03:04:49;;;;;;;2.38;1.30;;;17.20;53.20;;;13.29;66.75;95795.47;5071720;28;20032;-52
2022/05/28 03:07:17;;;;;;;3.30;1.60;;;17.10;53.20;;;13.32;67.29;95802.16;5055194;28;20414;-54
2022/05/28 03:09:46;;;;;;;2.20;1.40;;;17.00;53.10;;;13.28;68.08;95801.09;5072894;28;20394;-53
2022/05/28 03:12:12;;;;;;;3.42;1.60;;;17.10;53.40;;;13.25;68.02;95796.28;5072876;28;20086;-55
2022/05/28 03:14:40;;;;;;;1.60;1.40;;;17.00;53.40;;;13.22;68.07;95792.25;5072899;28;20055;-55
2022/05/28 03:17:09;;;;;;;1.55;1.30;;;17.00;53.60;;;13.19;68.67;95800.81;5072914;28;20024;-55
2022/05/28 03:19:35;;;;;;;2.28;1.23;;;16.90;53.70;;;13.18;68.62;95797.34;5061661;28;20035;-54
2022/05/28 03:22:13;;;;;;;2.35;1.33;;;16.90;53.80;;;13.16;68.34;95796.03;5092773;28;20490;-54
2022/05/28 03:24:38;;;;;;;1.42;1.27;;;16.90;54.00;;;13.13;68.67;95789.38;5071217;28;20494;-52
2022/05/28 03:27:05;;;;;;;5.03;1.30;;;16.90;54.00;;;13.09;68.45;95782.97;5087863;28;20031;-53
2022/05/28 03:29:36;;;;;;;5.47;1.23;;;16.80;54.10;;;13.07;68.54;95793.16;5074710;28;20035;-55
2022/05/28 03:32:08;;;;;;;2.03;1.38;;;16.80;54.20;;;13.02;68.16;95793.16;5075786;28;20032;-52
2022/05/28 03:34:37;;;;;;;1.63;1.20;;;16.80;54.20;;;13.00;68.12;95794.50;5071304;28;20067;-56
2022/05/28 03:37:06;;;;;;;2.47;1.30;;;16.80;54.20;;;12.96;69.11;95792.38;5084366;28;20028;-55
2022/05/28 03:39:34;;;;;;;2.28;1.42;;;16.80;54.30;;;12.92;69.24;95790.53;5072403;28;20025;-55
2022/05/28 03:42:00;;;;;;;6.05;1.20;;;16.70;54.40;;;12.88;69.46;95790.28;5070919;28;20490;-56
2022/05/28 03:44:34;;;;;;;1.50;1.13;;;16.70;54.40;;;12.81;69.19;95792.44;5072359;28;20106;-56
2022/05/28 03:47:00;;;;;;;2.85;1.25;;;16.70;54.60;;;12.77;69.58;95794.06;5072064;28;20029;-56
2022/05/28 03:49:44;;;;;;;1.70;1.38;;;16.60;54.50;;;12.75;69.58;95796.19;5071779;28;20071;-57
2022/05/28 03:52:11;;;;;;;1.23;1.08;;;16.60;54.90;;;12.77;70.30;95799.41;5071390;28;20072;-56
2022/05/28 03:54:48;;;;;;;2.03;1.60;;;16.60;54.80;;;12.73;70.57;95799.16;5071109;28;20468;-57
2022/05/28 03:57:26;;;;;;;3.70;1.80;;;16.60;55.10;;;12.74;71.49;95805.28;5071011;28;20485;-56
2022/05/28 03:59:53;;;;;;;1.60;1.40;;;16.60;55.30;;;12.76;70.86;95807.72;5075856;28;20063;-56
2022/05/28 04:02:20;;;;;;;2.03;1.35;;;16.60;55.20;;;12.77;70.88;95807.44;5076086;28;20459;-57
2022/05/28 04:04:49;;;;;;;2.75;1.40;;;16.60;55.30;;;12.78;71.34;95814.38;5074905;28;20029;-55
2022/05/28 04:07:16;;;;;;;1.55;1.45;;;16.60;55.40;;;12.78;71.08;95810.91;5076159;28;20021;-56
2022/05/28 04:09:45;;;;;;;1.63;1.20;;;16.60;55.50;;;12.77;71.09;95812.78;5076197;28;20028;-54
2022/05/28 04:12:14;;;;;;;1.70;1.30;;;16.60;55.60;;;12.79;71.13;95815.19;5075789;28;20111;-56
2022/05/28 04:14:44;;;;;;;2.55;1.45;;;16.60;55.60;;;12.76;71.57;95816.53;5074420;28;20024;-57
2022/05/28 04:17:10;;;;;;;2.50;1.42;;;16.60;55.60;;;12.78;71.77;95818.91;5075705;28;20024;-52
2022/05/28 04:19:39;;;;;;;2.58;1.65;;;16.60;55.60;;;12.80;71.68;95828.28;5075487;28;20039;-53
2022/05/28 04:22:15;;;;;;;2.17;1.42;;;16.60;55.80;;;12.81;71.64;95829.84;5075384;28;20074;-51
2022/05/28 04:24:47;;;;;;;3.70;1.50;;;16.60;55.80;;;12.85;71.72;95830.09;5057858;28;20490;-52
2022/05/28 04:27:16;;;;;;;2.30;1.58;;;16.70;55.90;;;12.84;71.79;95831.97;5075659;28;20376;-52
2022/05/28 04:29:45;;;;;;;1.90;1.38;;;16.70;55.80;;;12.86;71.90;95837.88;5086396;28;20024;-51
2022/05/28 04:32:13;;;;;;;4.03;1.60;;;16.80;55.90;;;12.89;71.64;95831.19;5077766;28;20025;-57
2022/05/28 04:34:39;;;;;;;2.55;1.50;;;16.80;55.80;;;12.94;71.42;95834.66;5075394;28;20021;-56
2022/05/28 04:37:13;;;;;;;4.32;1.40;;;16.90;55.80;;;13.00;71.07;95830.06;5087853;28;20078;-56
2022/05/28 04:39:45;;;;;;;2.85;1.60;;;16.90;55.80;;;13.04;70.13;95841.81;5074080;28;20021;-56
2022/05/28 04:42:14;;;;;;;3.95;1.70;;;17.00;55.60;;;13.08;69.74;95826.81;5074116;28;20028;-56
2022/05/28 04:44:39;;;;;;;2.50;1.60;;;17.10;55.60;;;13.13;69.55;95828.66;5075049;28;20021;-54
2022/05/28 04:47:05;;;;;;;1.70;1.35;;;17.10;55.40;;;13.18;70.45;95825.97;5075108;28;20028;-56
2022/05/28 04:49:31;;;;;;;1.92;1.45;;;17.20;55.40;;;13.25;70.45;95826.50;5075059;28;20028;-56
2022/05/28 04:52:05;;;;;;;2.03;1.40;;;17.20;55.40;;;13.32;70.46;95831.56;5073109;28;20087;-56
2022/05/28 04:54:37;;;;;;;2.28;1.35;;;17.30;55.40;;;13.34;70.48;95832.09;5074100;28;20033;-56
2022/05/28 04:57:03;;;;;;;3.30;1.50;;;17.40;55.40;;;13.38;69.73;95836.63;5074230;28;20033;-57
2022/05/28 04:59:44;;;;;;;4.90;1.83;;;17.50;55.30;;;13.46;70.10;95840.59;5075180;28;20087;-55
2022/05/28 05:02:16;;;;;;;2.38;1.50;;;17.60;55.40;;;13.49;67.50;95836.56;5075309;28;20100;-54
2022/05/28 05:04:45;;;;;;;3.90;1.60;;;17.60;54.90;;;13.56;67.67;95837.84;5073989;28;20486;-55
2022/05/28 05:07:13;;;;;;;4.78;1.80;;;17.70;54.60;;;13.65;68.04;95841.53;5075334;28;20027;-56
2022/05/28 05:09:45;;;;;;;3.00;1.60;;;17.80;54.50;;;13.72;68.32;95841.22;5074112;28;20031;-56
2022/05/28 05:12:15;;;;;;;2.65;1.40;;;17.90;54.60;;;13.77;68.25;95832.38;5075027;28;20119;-56
2022/05/28 05:14:47;;;;;;;2.25;1.52;;;18.00;54.50;;;13.83;66.07;95833.94;5074107;28;20372;-56
2022/05/28 05:17:16;;;;;;;2.38;1.50;;;18.00;54.20;;;13.89;65.69;95841.66;5073813;28;20445;-56
2022/05/28 05:19:48;;;;;;;6.57;2.08;;;18.10;53.90;;;13.96;65.22;95837.84;5075469;28;20068;-57
2022/05/28 05:22:16;;;;;;;3.97;2.10;;;18.20;53.60;;;14.06;64.72;95846.59;5075329;28;20038;-56
2022/05/28 05:24:47;;;;;;;3.60;1.42;;;18.30;53.40;;;14.16;63.92;95843.03;5075238;28;20032;-55
2022/05/28 05:27:14;;;;;;;8.10;1.67;;;18.40;53.20;;;14.23;63.75;95848.91;5074019;28;20050;-50
2022/05/28 05:29:40;;;;;;;3.95;1.75;;;18.50;52.90;;;14.32;63.75;95847.22;5077610;28;20028;-57
2022/05/28 05:32:09;;;;;;;2.65;1.60;;;18.60;52.70;;;14.42;62.72;95846.31;5077451;28;20020;-57
2022/05/28 05:34:42;;;;;;;1.75;1.40;;;18.70;52.40;;;14.65;61.92;95852.81;5084902;28;20046;-53
2022/05/28 05:37:12;;;;;;;3.00;1.50;;;18.90;51.90;;;14.84;60.62;95844.06;5087640;28;20054;-55
2022/05/28 05:39:38;;;;;;;1.98;1.38;;;19.10;51.60;;;14.96;60.52;95841.78;5074182;28;20414;-56
2022/05/28 05:42:07;;;;;;;5.10;1.88;;;19.30;51.30;;;15.18;60.28;95847.41;5073966;28;20032;-57
2022/05/28 05:44:39;;;;;;;3.30;2.20;;;19.50;51.60;;;15.65;58.06;95856.47;5074331;28;20024;-56
2022/05/28 05:47:11;;;;;;;3.87;1.63;;;19.90;50.30;;;15.91;58.06;95848.84;5081957;28;20024;-57
2022/05/28 05:49:37;;;;;;;4.70;1.73;;;20.10;49.90;;;16.03;57.32;95850.31;5095564;28;20025;-56
2022/05/28 05:52:08;;;;;;;3.38;1.58;;;20.30;49.60;;;16.17;56.91;95854.66;5094947;28;20052;-54
2022/05/28 05:54:34;;;;;;;3.35;2.05;;;20.50;49.20;;;16.25;55.94;95850.50;5091582;28;20518;-57
2022/05/28 05:57:06;;;;;;;3.63;1.55;;;20.70;48.70;;;16.32;56.15;95850.13;5043594;28;20028;-57
2022/05/28 05:59:40;;;;;;;3.63;1.98;;;20.90;48.30;;;16.30;55.48;95855.78;5095178;28;20026;-55
2022/05/28 06:02:09;;;;;;;6.20;1.95;;;21.00;47.80;;;16.37;55.59;95858.09;5094363;28;20059;-56
2022/05/28 06:04:41;;;;;;;3.17;1.75;;;21.10;47.60;;;16.42;55.86;95849.94;5056406;28;20391;-57
2022/05/28 06:07:07;;;;;;;5.47;1.85;;;21.20;47.20;;;16.34;55.36;95854.09;5085720;28;20024;-55
2022/05/28 06:09:34;;;;;;;3.58;2.10;;;21.40;46.70;;;16.16;56.50;95855.72;5073083;28;20043;-57
2022/05/28 06:12:09;;;;;;;5.47;2.42;;;21.40;46.20;;;16.27;55.61;95853.69;5079592;28;20512;-57
2022/05/28 06:14:35;;;;;;;2.88;1.75;;;21.40;46.20;;;16.31;55.84;95853.91;5093780;28;20020;-57
2022/05/28 06:17:16;;;;;;;2.67;2.00;;;21.30;46.20;;;16.68;55.35;95846.81;5063965;28;20047;-55
2022/05/28 06:19:41;;;;;;;6.82;2.80;;;21.50;46.00;;;16.90;54.24;95846.97;5073848;28;20028;-56
2022/05/28 06:22:13;;;;;;;6.13;2.03;;;21.60;45.80;;;17.31;53.62;95846.97;5072838;28;20722;-55
2022/05/28 06:24:48;;;;;;;2.38;1.92;;;21.90;45.50;;;17.81;52.02;95840.81;5088911;28;20060;-57
2022/05/28 06:27:14;;;;;;;3.85;2.30;;;22.40;44.90;;;18.24;51.03;95845.75;5068164;28;20055;-57
2022/05/28 06:29:42;;;;;;;3.85;1.92;;;22.90;44.40;;;18.34;50.59;95850.88;5076769;28;20020;-57
2022/05/28 06:32:17;;;;;;;3.92;2.30;;;23.10;43.70;;;18.42;50.46;95843.94;5080734;28;20505;-54
2022/05/28 06:34:42;;;;;;;2.80;2.40;;;23.40;43.30;;;18.80;49.61;95838.16;5054416;28;20097;-57
2022/05/28 06:37:15;;;;;;;2.38;2.13;;;23.70;42.80;;;19.03;48.93;95834.28;5069453;28;20025;-54
2022/05/28 06:39:47;;;;;;;4.30;2.20;;;24.00;42.20;;;19.37;48.03;95843.63;5072015;28;20032;-54
2022/05/28 06:42:18;;;;;;;4.20;2.10;;;24.40;41.60;;;19.62;47.03;95839.38;5072109;28;20055;-53
2022/05/28 06:44:43;;;;;;;3.13;2.00;;;24.70;40.90;;;19.52;47.43;95839.66;5072412;28;20043;-55
2022/05/28 06:47:09;;;;;;;2.95;2.28;;;24.70;40.80;;;19.35;48.27;95841.22;5058645;28;20032;-55
2022/05/28 06:51:01;;;;;;;2.88;2.10;;;24.60;40.60;;;19.16;48.19;95835.28;5071314;28;20055;-54
2022/05/28 06:52:36;;;;;;;3.38;2.08;;;24.50;40.20;;;18.99;48.91;95843.31;5072432;28;20044;-51
2022/05/28 06:55:08;;;;;;;6.70;2.78;;;24.60;40.00;;;18.34;50.28;95844.72;5071260;28;20278;-55
2022/05/28 06:57:42;;;;;;;3.47;2.30;;;24.50;39.50;;;18.26;50.71;95841.63;5071388;28;20063;-51
2022/05/28 07:00:12;;;;;;;4.07;2.13;;;24.20;39.50;;;18.21;51.40;95841.75;5058350;28;20137;-55
2022/05/28 07:02:38;;;;;;;5.57;2.25;;;24.00;39.80;;;18.19;51.95;95843.16;5072545;28;20032;-54
2022/05/28 07:05:07;;;;;;;4.03;2.65;;;23.80;40.30;;;18.05;51.98;95837.84;5054843;28;20029;-53
2022/05/28 07:07:36;;;;;;;3.83;2.60;;;23.50;40.60;;;17.82;52.78;95837.00;5072463;28;20052;-54
2022/05/28 07:10:06;;;;;;;3.85;2.60;;;23.60;40.70;;;18.03;51.54;95840.84;5072659;28;20024;-56
2022/05/28 07:12:35;;;;;;;5.28;2.50;;;23.90;40.40;;;18.35;50.33;95832.81;5072498;28;20033;-55
2022/05/28 07:15:06;;;;;;;3.70;2.45;;;24.00;40.10;;;18.71;50.35;95840.81;5054383;28;20067;-54
2022/05/28 07:17:37;;;;;;;3.03;2.30;;;24.40;39.90;;;18.92;49.64;95835.66;5071294;28;20052;-54
2022/05/28 07:20:08;;;;;;;5.32;2.80;;;24.40;39.80;;;18.71;48.82;95830.00;5072660;28;20466;-55
2022/05/28 07:22:45;;;;;;;6.78;2.97;;;24.60;39.40;;;19.15;49.04;95829.09;5071295;28;20029;-56
2022/05/28 07:25:17;;;;;;;2.75;2.33;;;25.00;39.10;;;19.33;48.67;95829.91;5072295;28;20072;-54
2022/05/28 07:27:43;;;;;;;3.55;2.50;;;25.40;38.60;;;19.45;47.07;95825.81;5072297;28;20021;-54
2022/05/28 07:30:12;;;;;;;3.00;2.40;;;25.60;38.00;;;19.64;46.91;95831.75;5088450;28;20107;-48
2022/05/28 07:32:40;;;;;;;3.58;2.53;;;25.70;37.70;;;19.84;46.31;95833.06;5074336;28;20024;-49
2022/05/28 07:35:09;;;;;;;3.97;2.75;;;25.90;37.40;;;20.03;45.90;95830.84;5082719;28;20024;-51
2022/05/28 07:37:44;;;;;;;3.15;2.60;;;26.00;37.00;;;19.80;46.59;95829.38;5076497;28;20035;-51
2022/05/28 07:40:19;;;;;;;5.30;2.90;;;25.90;36.80;;;19.61;47.04;95829.66;5077508;28;20100;-50
2022/05/28 07:42:44;;;;;;;5.13;2.78;;;26.10;36.40;;;19.54;45.53;95821.22;5076701;28;20037;-52
2022/05/28 07:45:22;;;;;;;5.88;2.60;;;26.20;35.90;;;19.77;44.67;95821.91;5079924;28;20025;-53
2022/05/28 07:47:48;;;;;;;3.72;3.08;;;26.40;35.30;;;19.80;43.29;95824.78;5085104;28;20387;-52
2022/05/28 07:50:13;;;;;;;4.15;2.72;;;26.60;34.60;;;19.11;44.49;95822.72;5077517;28;20029;-54
2022/05/28 07:52:39;;;;;;;4.28;2.78;;;26.90;33.70;;;19.28;44.65;95819.28;5077756;28;20123;-50
2022/05/28 07:55:12;;;;;;;5.22;2.85;;;26.90;33.20;;;19.76;44.21;95812.22;5077772;28;20028;-53
2022/05/28 07:57:40;;;;;;;;;;;26.80;33.20;;;20.25;43.35;95805.53;5077018;28;20075;-52
2022/05/28 08:00:19;;;;;;;5.63;3.15;;;26.90;33.80;;;20.23;42.55;95815.06;5076157;28;20393;-51
2022/05/28 08:02:45;;;;;;;3.45;2.60;;;27.20;32.90;;;20.69;41.10;95814.34;5081891;28;20067;-49
2022/05/28 08:05:14;;;;;;;5.05;3.10;;;27.40;32.80;;;21.35;40.60;95815.81;5077711;28;20064;-50
2022/05/28 08:07:46;;;;;;;5.97;3.00;;;28.00;32.40;;;21.92;38.20;95797.09;5077531;28;20506;-51
2022/05/28 08:10:14;;;;;;;3.53;2.80;;;28.70;31.70;;;22.31;37.96;95805.06;5077227;28;20036;-51
2022/05/28 08:12:49;;;;;;;4.13;2.83;;;29.30;31.10;;;22.07;38.78;95811.19;5077782;28;20044;-50
2022/05/28 08:15:18;;;;;;;4.60;3.08;;;29.70;30.10;;;21.59;38.76;95817.91;5076586;28;20024;-52
2022/05/28 08:17:46;;;;;;;4.63;3.10;;;29.80;29.30;;;22.09;38.54;95803.50;5077776;28;20460;-52
2022/05/28 08:20:12;;;;;;;4.10;2.88;;;30.00;29.00;;;22.55;36.86;95805.16;5077306;28;20094;-51
2022/05/28 08:25:22;;;;;;;4.63;2.90;;;30.00;28.70;;;21.75;37.79;95805.38;5077629;28;20035;-50
2022/05/28 08:27:47;;;;;;;7.43;3.08;;;30.00;28.30;;;22.16;37.92;95803.81;5076152;28;20107;-49
2022/05/28 08:30:13;;;;;;;7.65;2.90;;;30.10;28.00;;;22.79;36.16;95800.91;5091300;28;20024;-49
2022/05/28 08:32:42;;;;;;;7.00;3.10;;;30.40;28.00;;;22.76;34.42;95793.44;5077504;28;20107;-54
2022/05/28 08:35:20;;;;;;;4.10;2.72;;;30.60;27.40;;;22.55;36.63;95802.44;5077495;28;20090;-49
2022/05/28 08:37:45;;;;;;;3.72;2.60;;;30.40;27.20;;;22.92;34.45;95790.84;5081702;28;20029;-50
2022/05/28 08:40:15;;;;;;;2.70;2.50;;;30.50;27.20;;;23.07;34.28;95788.28;5077503;28;20112;-49
2022/05/28 08:42:41;;;;;;;3.83;2.72;;;30.70;26.90;;;23.39;33.63;95791.22;5076259;28;20024;-51
2022/05/28 08:45:12;;;;;;;4.07;2.42;;;30.90;26.60;;;23.72;34.53;95788.38;5040862;28;20075;-54
2022/05/28 08:47:42;;;;;;;4.28;3.03;;;31.10;26.70;;;24.05;32.25;95786.56;5073037;28;20040;-50
2022/05/28 08:50:18;;;;;;;3.92;2.65;;;31.40;26.30;;;24.29;31.64;95789.16;5072765;28;20368;-55
2022/05/28 08:52:55;;;;;;;4.28;2.70;;;31.90;26.00;;;24.52;30.86;95783.19;5075112;28;20506;-48
2022/05/28 08:55:25;;;;;;;5.57;3.13;;;32.30;25.80;;;24.75;29.87;95795.06;5047880;28;20028;-49
2022/05/28 08:58:08;;;;;;;4.47;2.88;;;32.50;25.20;;;25.11;30.01;95782.31;5076788;28;20043;-50
2022/05/28 09:00:56;;;;;;;4.18;2.63;;;32.70;24.90;;;25.11;30.06;95780.38;5076919;28;20027;-49
2022/05/28 09:03:51;;;;;;;4.30;3.10;;;33.00;24.70;;;25.27;29.63;95777.66;5075351;28;20536;-50
2022/05/28 09:06:41;;;;;;;5.05;3.00;;;33.40;24.40;;;25.76;29.52;95776.38;5073531;28;20036;-52
2022/05/28 09:09:13;;;;;;;4.95;2.75;;;33.60;24.20;;;25.72;29.62;95775.53;5068776;28;20039;-51
2022/05/28 09:12:06;;;;;;;4.90;2.72;;;34.10;23.90;;;25.33;29.92;95762.63;5076859;28;20496;-51
2022/05/28 09:14:38;;;;;;;5.85;2.90;;;34.10;23.40;;;24.61;30.88;95773.72;5074318;28;20032;-51
2022/05/28 09:17:38;;;;;;;5.40;2.70;;;33.60;23.70;;;24.58;32.04;95770.91;5074580;28;20498;-53
2022/05/28 09:20:11;;;;;;;4.20;2.80;;;33.00;23.70;;;24.25;32.01;95755.59;5046766;28;20043;-52
2022/05/28 09:22:38;;;;;;;3.03;2.70;;;32.60;24.10;;;23.95;32.88;95760.63;5060132;28;20059;-52
2022/05/28 09:25:10;;;;;;;4.32;2.85;;;32.20;24.20;;;23.24;33.29;95756.56;5072900;28;20028;-51
2022/05/28 09:28:01;;;;;;;5.70;2.72;;;31.60;24.20;;;23.26;34.04;95762.47;5059378;28;20490;-51
2022/05/28 09:30:55;;;;;;;3.17;2.58;;;31.10;24.90;;;23.40;33.49;95753.94;5094456;28;20028;-50
2022/05/28 09:33:55;;;;;;;4.45;2.70;;;31.10;25.00;;;23.04;34.09;95748.22;5094227;28;20024;-52
2022/05/28 09:36:59;;;;;;;4.65;2.92;;;31.10;25.10;;;22.89;34.54;95745.38;5094378;28;20194;-50
2022/05/28 09:39:52;;;;;;;3.45;2.70;;;31.20;24.90;;;22.17;36.31;95740.28;5093958;28;20020;-51
2022/05/28 09:42:24;;;;;;;6.13;2.78;;;31.10;24.80;;;22.11;35.70;95745.09;5094111;28;20119;-51
2022/05/28 09:45:09;;;;;;;;;;;30.80;25.10;;;22.51;34.92;95741.03;5073057;28;20025;-52
2022/05/28 09:47:51;;;;;;;2.92;2.20;;;30.80;25.10;;;23.07;34.31;95730.47;5092984;28;19961;-52
2022/05/28 09:50:23;;;;;;;4.78;3.17;;;31.10;25.20;;;22.91;34.39;95734.94;5073769;28;20025;-49
2022/05/28 09:56:26;;;;;;;5.25;3.13;;;30.70;25.40;;;22.95;33.79;95723.09;5072432;28;20178;-53
2022/05/28 09:59:00;;;;;;;3.58;2.80;;;31.10;25.20;;;23.18;32.67;95717.97;5039903;28;20451;-53
2022/05/28 10:01:34;;;;;;;6.95;3.13;;;31.50;24.70;;;24.15;32.40;95721.53;5068223;28;20036;-49
2022/05/28 10:07:04;;;;;;;5.15;2.55;;;32.60;24.30;;;24.58;30.63;95725.41;5052343;28;20396;-52
2022/05/28 10:09:34;;;;;;;4.00;2.67;;;32.70;24.00;;;24.06;32.28;95715.44;5055606;28;20033;-55
2022/05/28 10:12:15;;;;;;;4.03;2.65;;;32.60;24.00;;;23.71;31.78;95718.00;5038819;28;20111;-51
2022/05/28 10:14:44;;;;;;;4.78;2.88;;;32.30;23.80;;;23.73;30.17;95707.56;5056876;28;20417;-54
2022/05/28 10:17:23;;;;;;;5.60;3.03;;;32.00;23.60;;;24.03;30.93;95705.25;5073223;28;20063;-50
2022/05/28 10:19:52;;;;;;;3.83;2.60;;;31.80;23.70;;;23.79;31.23;95700.75;5055537;28;20028;-49
2022/05/28 10:22:20;;;;;;;6.10;2.55;;;31.70;23.70;;;24.11;30.01;95701.59;5055594;28;20032;-53
2022/05/28 10:24:54;;;;;;;3.03;2.53;;;31.80;23.60;;;24.56;28.74;95691.47;5072948;28;20016;-54
2022/05/28 10:27:47;;;;;;;4.45;2.40;;;32.20;23.10;;;25.09;28.57;95691.94;5056979;28;20021;-54
2022/05/28 10:30:41;;;;;;;6.22;2.83;;;32.70;22.90;;;25.60;27.88;95684.53;5072781;28;20024;-50
2022/05/28 10:33:19;;;;;;;4.13;2.78;;;33.10;22.80;;;25.84;27.00;95680.72;5055018;28;20040;-52
2022/05/28 10:35:46;;;;;;;5.18;2.90;;;33.50;22.30;;;26.00;26.95;95682.56;5038594;28;20025;-53
2022/05/28 10:38:23;;;;;;;4.25;2.50;;;33.70;22.20;;;25.86;27.35;95680.38;5038423;28;20064;-53
2022/05/28 10:41:01;;;;;;;2.67;2.30;;;33.90;21.80;;;25.99;27.62;95681.00;5055246;28;20064;-53
2022/05/28 10:43:38;;;;;;;4.85;2.42;;;33.70;22.00;;;25.77;28.41;95677.84;5051542;28;20040;-54
2022/05/28 10:46:15;;;;;;;3.63;2.47;;;33.50;22.10;;;25.27;28.92;95673.31;5066245;28;20021;-52
2022/05/28 10:48:56;;;;;;;2.83;2.03;;;33.20;22.20;;;25.02;29.89;95673.50;5072772;28;20024;-52
2022/05/28 10:52:12;;;;;;;3.85;2.85;;;32.80;22.50;;;24.96;28.75;95671.41;5056929;28;20036;-51
2022/05/28 10:55:35;;;;;;;3.83;2.80;;;33.10;22.10;;;24.75;28.04;95672.50;5071223;28;20143;-53